Time;durP1;ratioP1;P1;durP2;ratioP2;P2;SDS_P1;SDS_P2;PMS_P1;PMS_P2;Temp;Humidity;BMP_temperature;BMP_pressure;BME280_temperature;BME280_humidity;BME280_pressure;Samples;Min_cycle;Max_cycle;Signal;HPM_P1;HPM_P2
2022/12/02 00:01:01;;;;;;;22.87;13.37;;;6.60;95.20;;;7.02;64.57;99103.13;4949239;28;123985;-73
2022/12/02 00:03:29;;;;;;;22.77;12.90;;;6.60;95.20;;;7.01;64.34;99101.50;4969815;28;124924;-74
2022/12/02 00:05:55;;;;;;;26.23;14.13;;;6.70;95.20;;;7.01;64.04;99101.50;4951319;28;114849;-74
2022/12/02 00:08:28;;;;;;;23.83;13.90;;;6.60;95.20;;;7.03;64.53;99095.69;4949275;28;114743;-74
2022/12/02 00:10:57;;;;;;;23.43;12.50;;;6.60;95.20;;;7.03;64.83;99090.19;4967270;28;124091;-74
2022/12/02 00:13:27;;;;;;;24.17;14.13;;;6.50;95.20;;;7.02;64.43;99099.56;4950941;28;123798;-74
2022/12/02 00:15:59;;;;;;;26.30;14.20;;;7.80;95.70;;;7.02;64.66;99088.56;4958658;28;114081;-74
2022/12/02 00:18:27;;;;;;;24.47;13.80;;;6.60;95.20;;;6.98;64.88;99088.28;4951439;28;114160;-74
2022/12/02 00:20:54;;;;;;;28.23;14.97;;;6.60;95.20;;;6.95;64.92;99093.53;4965253;28;124040;-75
2022/12/02 00:23:21;;;;;;;26.77;15.30;;;6.50;95.20;;;6.91;64.84;99082.28;4969823;28;123597;-74
2022/12/02 00:25:51;;;;;;;27.30;14.03;;;6.50;95.30;;;6.91;64.33;99085.03;4970751;28;113691;-75
2022/12/02 00:28:18;;;;;;;24.47;13.63;;;6.50;95.30;;;6.89;64.50;99080.94;4967548;28;113932;-74
2022/12/02 00:30:45;;;;;;;24.07;13.77;;;6.50;95.30;;;6.88;65.09;99074.63;4967292;28;124239;-74
2022/12/02 00:33:11;;;;;;;21.07;13.40;;;6.50;95.30;;;6.87;64.49;99070.22;4969264;28;123773;-74
2022/12/02 00:35:38;;;;;;;24.80;14.13;;;6.80;95.40;;;6.85;64.91;99077.91;4969383;28;114714;-75
2022/12/02 00:38:05;;;;;;;25.53;13.63;;;6.40;95.30;;;6.82;64.74;99079.31;4972460;28;114082;-75
2022/12/02 00:40:33;;;;;;;25.33;13.80;;;6.60;95.40;;;6.79;64.76;99068.88;4952831;28;123760;-74
2022/12/02 00:48:31;;;;;;;30.97;13.23;;;6.30;95.40;;;6.77;65.05;99065.59;4973948;28;114502;-75
2022/12/02 00:50:57;;;;;;;24.03;12.03;;;6.40;95.50;;;6.80;65.02;99064.22;4987160;28;123964;-74
2022/12/02 00:53:24;;;;;;;24.47;12.70;;;6.40;95.50;;;6.84;65.39;99059.78;4964229;28;122932;-75
2022/12/02 00:55:50;;;;;;;32.80;14.50;;;6.40;95.50;;;6.87;64.72;99053.75;4960823;28;113699;-75
2022/12/02 00:58:17;;;;;;;27.70;13.97;;;6.50;95.50;;;6.86;64.79;99052.09;4976581;28;114578;-74
2022/12/02 01:00:43;;;;;;;31.83;15.37;;;6.40;95.40;;;6.84;64.93;99059.78;4968400;28;123996;-74
2022/12/02 01:03:10;;;;;;;28.00;15.10;;;6.40;95.50;;;6.83;65.50;99058.97;4985426;28;123681;-74
2022/12/02 01:05:37;;;;;;;27.70;15.13;;;6.40;95.50;;;6.85;65.23;99055.94;4956956;28;114356;-75
2022/12/02 01:08:03;;;;;;;26.20;15.17;;;6.40;95.50;;;6.84;64.90;99052.38;4970956;28;114076;-74
2022/12/02 01:10:30;;;;;;;25.00;13.33;;;6.40;95.50;;;6.85;64.77;99053.19;4968450;28;124337;-75
2022/12/02 01:12:56;;;;;;;26.70;14.40;;;6.40;95.80;;;6.85;65.21;99045.78;4965078;28;125280;-75
2022/12/02 01:15:23;;;;;;;29.53;15.17;;;6.40;95.50;;;6.87;65.08;99053.75;4990835;28;114160;-74
2022/12/02 01:17:50;;;;;;;26.67;14.10;;;6.50;95.50;;;6.87;65.07;99045.50;4974300;28;114181;-74
2022/12/02 01:20:16;;;;;;;26.00;14.67;;;6.40;95.50;;;6.87;64.97;99048.25;4989767;28;123847;-74
2022/12/02 01:22:43;;;;;;;24.70;14.17;;;6.40;95.50;;;6.87;65.19;99053.75;4977267;28;123531;-74
2022/12/02 01:25:09;;;;;;;25.67;14.10;;;6.40;95.50;;;6.85;65.35;99050.44;4979932;28;114076;-75
2022/12/02 01:27:36;;;;;;;24.80;13.03;;;6.40;95.50;;;6.85;65.08;99045.78;4981590;28;113911;-74
2022/12/02 01:30:03;;;;;;;24.27;12.80;;;6.40;95.50;;;6.84;65.14;99043.31;4985977;28;124075;-74
2022/12/02 01:32:30;;;;;;;25.50;13.13;;;6.40;95.50;;;6.86;65.08;99041.94;4968923;28;123963;-76
2022/12/02 01:34:56;;;;;;;29.17;13.70;;;6.40;95.50;;;6.88;65.56;99038.91;4939817;28;112667;-75
2022/12/02 01:37:24;;;;;;;22.40;12.73;;;6.50;95.60;;;6.90;65.21;99039.44;4976922;28;114088;-75
2022/12/02 01:39:50;;;;;;;27.80;14.70;;;6.50;95.60;;;6.92;65.48;99041.91;4952556;28;123962;-75
2022/12/02 01:42:17;;;;;;;28.00;14.13;;;6.50;95.60;;;6.93;65.01;99040.78;4983643;28;123792;-75
2022/12/02 01:44:44;;;;;;;23.50;13.60;;;6.90;95.80;;;6.95;65.31;99042.16;4966883;28;115440;-75
2022/12/02 01:47:10;;;;;;;21.17;12.50;;;6.50;95.60;;;6.97;65.30;99031.72;4987195;28;114093;-75
2022/12/02 01:49:37;;;;;;;23.50;13.10;;;5.70;95.30;;;7.00;64.85;99031.16;4960938;28;123757;-75
2022/12/02 01:52:04;;;;;;;21.77;12.60;;;6.50;95.60;;;7.00;65.35;99035.81;4975009;28;124315;-75
2022/12/02 01:54:31;;;;;;;24.37;14.20;;;6.50;95.60;;;6.98;64.95;99027.84;4953722;28;114211;-75
2022/12/02 01:56:57;;;;;;;23.93;13.27;;;6.50;95.60;;;6.97;65.10;99030.91;4952298;28;113900;-74
2022/12/02 01:59:25;;;;;;;24.70;13.00;;;6.50;95.60;;;6.96;64.92;99023.75;4952256;28;123023;-75
2022/12/02 02:01:52;;;;;;;26.63;14.63;;;6.50;95.60;;;6.95;65.14;99025.69;4953871;28;122617;-75
2022/12/02 02:04:19;;;;;;;26.73;13.83;;;6.50;95.60;;;6.94;65.01;99023.22;4961045;28;114256;-75
2022/12/02 02:06:46;;;;;;;26.43;14.97;;;6.50;95.60;;;6.92;65.09;99025.44;4965729;28;113743;-74
2022/12/02 02:09:13;;;;;;;22.40;13.10;;;6.50;95.60;;;6.91;65.15;99027.38;4983756;28;124650;-75
2022/12/02 02:11:41;;;;;;;23.27;13.27;;;6.50;95.60;;;6.90;65.39;99024.88;4953570;28;123794;-75
2022/12/02 02:14:11;;;;;;;24.57;12.67;;;6.50;95.60;;;6.92;65.25;99034.50;4971073;28;114418;-75
2022/12/02 02:16:38;;;;;;;23.87;14.00;;;6.50;95.70;;;6.92;65.63;99029.00;4966878;28;113687;-74
2022/12/02 02:19:11;;;;;;;30.27;15.00;;;6.50;95.70;;;6.95;65.27;99033.09;4958785;28;123813;-74
2022/12/02 02:21:45;;;;;;;24.57;12.50;;;6.40;95.70;;;6.93;65.58;99029.81;4967680;28;124036;-74
2022/12/02 02:24:13;;;;;;;24.60;14.33;;;6.50;95.80;;;6.93;65.29;99019.66;4953902;28;114649;-75
2022/12/02 02:26:40;;;;;;;31.87;14.97;;;6.50;95.80;;;6.95;65.44;99016.63;4970667;28;112829;-75
2022/12/02 02:29:06;;;;;;;25.93;13.30;;;6.50;95.80;;;6.95;65.11;99022.94;4949714;28;124148;-75
2022/12/02 02:31:33;;;;;;;31.97;15.23;;;6.50;95.80;;;6.96;65.59;99021.00;4941795;28;123675;-75
2022/12/02 02:34:00;;;;;;;22.80;13.20;;;6.50;95.70;;;6.96;65.50;99026.50;4929765;28;115040;-77
2022/12/02 02:36:27;;;;;;;27.53;14.23;;;6.50;95.70;;;6.95;65.19;99014.69;4924973;28;115811;-75
2022/12/02 02:38:54;;;;;;;25.10;13.63;;;6.50;95.80;;;6.97;65.19;99015.25;4944833;28;124372;-75
2022/12/02 02:41:21;;;;;;;28.90;15.20;;;6.50;95.80;;;6.97;65.00;99015.25;4943074;28;123831;-75
2022/12/02 02:43:47;;;;;;;24.07;13.70;;;6.60;95.80;;;6.98;65.38;99014.13;4948232;28;114179;-75
2022/12/02 02:46:14;;;;;;;26.60;13.47;;;6.50;95.70;;;6.97;65.50;99003.44;4934591;28;113902;-75
2022/12/02 02:48:42;;;;;;;29.50;14.10;;;6.50;95.70;;;6.96;65.47;99005.38;4925229;28;123783;-75
2022/12/02 02:51:11;;;;;;;28.20;14.73;;;6.50;95.70;;;6.96;65.60;98991.63;4941063;28;123884;-75
2022/12/02 02:53:37;;;;;;;23.23;13.57;;;7.00;95.90;;;6.94;65.33;98996.59;4929534;28;113969;-75
2022/12/02 02:56:04;;;;;;;25.70;13.43;;;6.50;95.70;;;6.92;65.37;99006.22;4907249;28;113626;-74
2022/12/02 02:58:34;;;;;;;24.50;13.87;;;6.50;95.70;;;6.91;65.21;98999.09;4917712;28;123568;-75
2022/12/02 03:01:10;;;;;;;28.23;14.53;;;6.50;95.70;;;6.93;65.45;99002.34;4954133;28;124292;-74
2022/12/02 03:04:00;;;;;;;25.83;14.37;;;6.50;95.70;;;6.93;65.62;98992.19;4948311;28;112514;-75
2022/12/02 03:06:29;;;;;;;25.00;12.67;;;6.50;95.70;;;6.93;65.45;98991.34;4973401;28;114029;-74
2022/12/02 03:08:56;;;;;;;26.33;14.20;;;6.50;95.80;;;6.95;65.64;98995.47;4961735;28;124769;-74
2022/12/02 03:11:25;;;;;;;22.50;13.30;;;6.50;95.80;;;6.97;65.34;98993.25;4983702;28;123591;-74
2022/12/02 03:13:52;;;;;;;25.90;14.10;;;6.50;95.70;;;6.99;65.27;98990.25;4961855;28;114099;-74
2022/12/02 03:16:23;;;;;;;29.80;13.83;;;7.10;96.00;;;7.01;65.47;98988.00;4979038;28;113863;-74
2022/12/02 03:18:51;;;;;;;28.97;15.47;;;6.50;95.70;;;6.98;65.57;98989.41;4950075;28;124698;-74
2022/12/02 03:21:19;;;;;;;29.00;14.10;;;6.50;95.70;;;6.92;65.47;98976.81;4965363;28;123824;-74
2022/12/02 03:23:49;;;;;;;20.40;12.87;;;6.80;95.80;;;6.91;65.68;98983.41;4953921;28;115194;-74
2022/12/02 03:26:16;;;;;;;25.87;14.13;;;6.50;95.70;;;6.89;65.35;98982.88;4948894;28;114923;-74
2022/12/02 03:28:42;;;;;;;26.60;15.03;;;6.50;95.80;;;6.87;65.34;98982.34;4980867;28;124777;-74
2022/12/02 03:31:10;;;;;;;29.70;14.13;;;6.40;96.00;;;6.84;65.51;98982.91;4978875;28;123832;-74
2022/12/02 03:33:37;;;;;;;23.90;13.33;;;6.40;95.70;;;6.83;65.25;98989.50;4969963;28;115456;-74
2022/12/02 03:36:06;;;;;;;23.70;12.70;;;7.30;96.10;;;6.82;65.71;98991.44;4971685;28;114718;-74
2022/12/02 03:38:33;;;;;;;25.43;13.67;;;6.40;95.80;;;6.81;65.37;98988.97;4955407;28;123676;-74
2022/12/02 03:41:05;;;;;;;24.87;14.20;;;6.40;95.80;;;6.81;65.62;98981.53;4977092;28;123868;-74
2022/12/02 03:43:31;;;;;;;29.07;14.93;;;6.40;95.80;;;6.81;65.71;98989.78;4951525;28;113897;-75
2022/12/02 03:45:59;;;;;;;30.50;13.53;;;6.40;95.90;;;6.81;65.76;98988.97;4971528;28;113915;-75
2022/12/02 03:48:26;;;;;;;32.83;17.37;;;6.40;96.10;;;6.78;65.54;98984.03;4976213;28;124145;-75
2022/12/02 03:50:53;;;;;;;24.13;13.63;;;6.30;95.90;;;6.78;66.12;98978.56;4983267;28;124020;-75
2022/12/02 03:53:21;;;;;;;22.67;12.60;;;6.30;95.90;;;6.79;65.81;98991.16;4964710;28;114186;-75
2022/12/02 03:55:48;;;;;;;21.80;12.50;;;6.40;95.90;;;6.80;65.81;98981.84;4960083;28;113902;-74
2022/12/02 03:58:15;;;;;;;26.37;14.30;;;7.30;96.30;;;6.80;65.76;98974.41;4991211;28;123325;-74
2022/12/02 04:00:41;;;;;;;24.70;13.73;;;6.40;95.90;;;6.78;66.13;98971.13;4974700;28;123595;-74
2022/12/02 04:03:08;;;;;;;25.73;14.63;;;6.40;95.90;;;6.79;65.79;98974.69;4963956;28;114207;-75
2022/12/02 04:05:34;;;;;;;25.13;13.37;;;6.40;95.90;;;6.81;65.59;98969.75;4959256;28;113667;-74
2022/12/02 04:08:01;;;;;;;26.37;15.00;;;6.40;95.90;;;6.80;65.67;98973.59;4982823;28;123324;-75
2022/12/02 04:10:27;;;;;;;27.57;14.00;;;6.40;95.90;;;6.81;65.82;98972.50;4985910;28;124367;-75
2022/12/02 04:12:54;;;;;;;23.80;13.77;;;6.50;96.00;;;6.83;65.67;98970.28;4984005;28;115229;-75
2022/12/02 04:15:20;;;;;;;29.20;14.10;;;6.40;96.00;;;6.84;65.50;98963.69;4973817;28;115287;-75
2022/12/02 04:17:47;;;;;;;26.87;14.40;;;6.40;95.90;;;6.84;66.06;98960.94;4963495;28;124059;-75
2022/12/02 04:20:13;;;;;;;23.80;12.33;;;6.40;95.90;;;6.83;66.29;98959.31;4984845;28;123911;-74
2022/12/02 04:22:40;;;;;;;23.77;12.53;;;7.60;96.40;;;6.84;66.08;98963.69;4990838;28;114277;-74
2022/12/02 04:25:07;;;;;;;21.80;12.93;;;6.40;95.90;;;6.86;65.73;98954.06;4992035;28;114807;-75
2022/12/02 04:27:33;;;;;;;27.47;13.90;;;6.40;95.90;;;6.86;65.69;98948.56;4961564;28;123387;-75
2022/12/02 04:30:00;;;;;;;27.43;14.13;;;6.40;95.90;;;6.88;65.98;98944.69;4989466;28;123920;-75
2022/12/02 04:32:26;;;;;;;25.87;13.83;;;6.60;96.00;;;6.88;65.75;98940.03;4950205;28;114096;-75
2022/12/02 04:34:53;;;;;;;29.80;15.97;;;6.40;95.90;;;6.88;65.69;98945.53;4981752;28;114469;-75
2022/12/02 04:37:19;;;;;;;26.93;13.17;;;6.40;96.00;;;6.85;65.92;98940.59;4990599;28;123766;-75
2022/12/02 04:39:46;;;;;;;25.60;13.73;;;6.40;96.20;;;6.83;65.99;98942.81;4991906;28;123748;-75
2022/12/02 04:42:12;;;;;;;26.93;14.47;;;6.40;95.90;;;6.82;66.23;98941.16;4971867;28;114229;-75
2022/12/02 04:44:39;;;;;;;21.87;12.60;;;6.40;96.00;;;6.81;66.38;98936.78;4956419;28;114036;-75
2022/12/02 04:47:05;;;;;;;31.57;14.10;;;6.40;96.00;;;6.80;65.86;98941.47;4987747;28;124002;-75
2022/12/02 04:49:31;;;;;;;23.40;13.10;;;6.40;96.00;;;6.79;65.80;98937.06;4959933;28;123910;-75
2022/12/02 04:51:58;;;;;;;24.73;13.47;;;6.40;96.00;;;6.81;66.02;98934.03;4978336;28;114293;-75
2022/12/02 04:54:24;;;;;;;28.90;13.13;;;6.40;96.00;;;6.81;65.76;98939.53;4965770;28;113109;-76
2022/12/02 04:56:51;;;;;;;25.90;11.80;;;6.40;96.00;;;6.82;65.90;98946.66;4965392;28;124970;-76
2022/12/02 04:59:17;;;;;;;28.20;15.37;;;6.40;96.00;;;6.82;65.65;98938.41;4977712;28;124361;-76
2022/12/02 05:01:44;;;;;;;25.50;13.47;;;6.40;96.00;;;6.82;66.23;98941.16;4985083;28;115003;-76
2022/12/02 05:04:10;;;;;;;25.90;13.13;;;6.40;96.00;;;6.81;66.20;98940.34;4982881;28;115214;-75
2022/12/02 05:06:38;;;;;;;24.90;13.80;;;6.60;96.10;;;6.82;65.66;98932.94;4985081;28;123645;-75
2022/12/02 05:09:04;;;;;;;28.97;14.00;;;6.40;96.00;;;6.84;65.87;98936.22;4994325;28;123276;-76
2022/12/02 05:11:31;;;;;;;25.10;12.57;;;6.40;96.00;;;6.85;66.21;98937.84;4987596;28;114354;-75
2022/12/02 05:13:58;;;;;;;25.50;13.33;;;6.40;96.00;;;6.88;65.78;98944.69;4965465;28;113908;-75
2022/12/02 05:16:25;;;;;;;21.27;11.23;;;7.60;96.50;;;6.88;65.99;98937.31;4970146;28;123994;-75
2022/12/02 05:18:52;;;;;;;31.97;15.87;;;6.50;96.10;;;6.90;65.68;98935.06;4973567;28;123776;-75
2022/12/02 05:21:18;;;;;;;28.73;14.73;;;6.40;96.00;;;6.91;66.02;98942.22;4987995;28;114343;-75
2022/12/02 05:24:04;;;;;;;28.13;15.20;;;6.40;96.00;;;6.94;65.57;98936.16;4981533;28;114082;-75
2022/12/02 05:26:32;;;;;;;26.07;14.60;;;6.40;96.10;;;6.92;65.46;98935.63;4967992;28;123830;-75
2022/12/02 05:28:59;;;;;;;25.30;13.07;;;6.40;96.10;;;6.92;65.88;98935.63;4992142;28;123148;-75
2022/12/02 05:31:25;;;;;;;30.27;15.77;;;6.50;96.10;;;6.93;65.75;98931.78;4982106;28;114025;-75
2022/12/02 05:33:53;;;;;;;29.30;14.00;;;6.60;96.10;;;6.93;66.08;98931.78;4982404;28;113622;-76
2022/12/02 05:36:19;;;;;;;24.63;14.03;;;6.50;96.10;;;6.95;65.58;98931.47;4967592;28;123714;-75
2022/12/02 05:38:46;;;;;;;29.50;15.47;;;6.50;96.10;;;6.96;65.91;98936.69;4986124;28;123888;-74
2022/12/02 05:41:12;;;;;;;23.60;12.87;;;6.50;96.10;;;6.98;65.88;98930.91;4975474;28;114292;-75
2022/12/02 05:43:41;;;;;;;24.87;13.90;;;6.50;96.10;;;6.97;65.77;98935.59;4977439;28;114054;-75
2022/12/02 05:46:17;;;;;;;29.70;15.70;;;6.50;96.00;;;6.99;65.74;98936.13;4984058;28;123774;-75
2022/12/02 05:48:45;;;;;;;34.80;16.00;;;6.50;96.00;;;6.97;65.60;98927.34;4931842;28;122429;-75
2022/12/02 05:51:19;;;;;;;27.60;14.50;;;6.50;96.10;;;6.99;65.76;98927.88;4954091;28;115103;-75
2022/12/02 05:53:49;;;;;;;30.90;13.87;;;6.50;96.10;;;6.98;65.85;98939.94;4971315;28;114373;-75
2022/12/02 05:56:27;;;;;;;26.80;14.63;;;6.50;96.10;;;6.99;65.91;98930.63;4974299;28;124077;-75
2022/12/02 05:59:10;;;;;;;26.80;13.30;;;6.50;96.10;;;7.00;65.99;98929.50;4944574;28;122713;-75
2022/12/02 06:01:39;;;;;;;35.13;15.53;;;6.60;96.40;;;6.99;65.40;98924.31;4950806;28;113209;-75
2022/12/02 06:04:14;;;;;;;29.07;14.03;;;7.70;96.50;;;7.01;65.90;98931.16;4943609;28;113165;-75
2022/12/02 06:06:44;;;;;;;24.83;12.70;;;6.50;96.10;;;6.99;65.60;98922.38;4952146;28;123417;-75
2022/12/02 06:09:18;;;;;;;27.87;14.97;;;6.50;96.00;;;7.00;66.12;98935.00;4946145;28;122892;-78
2022/12/02 06:12:06;;;;;;;25.53;13.87;;;6.60;96.10;;;7.00;65.57;98928.69;4966124;28;114357;-75
2022/12/02 06:14:34;;;;;;;29.70;16.00;;;6.60;96.10;;;6.98;65.95;98928.97;4892326;28;114557;-75
2022/12/02 06:17:14;;;;;;;27.43;14.27;;;6.60;96.10;;;6.99;65.97;98919.63;4894185;28;123438;-75
2022/12/02 06:19:46;;;;;;;28.80;14.93;;;6.60;96.10;;;6.98;65.88;98917.97;4866064;28;123909;-75
2022/12/02 06:22:26;;;;;;;27.20;15.00;;;6.50;96.10;;;6.96;65.89;98925.72;4881937;28;114243;-75
2022/12/02 06:24:55;;;;;;;31.17;14.80;;;6.50;96.00;;;6.92;65.72;98919.13;4891383;28;113916;-75
2022/12/02 06:27:22;;;;;;;33.77;14.83;;;6.50;96.10;;;6.91;66.09;98922.19;4891716;28;123980;-75
2022/12/02 06:30:06;;;;;;;26.17;14.80;;;7.00;96.30;;;6.93;66.52;98919.94;4891581;28;124538;-75
2022/12/02 06:32:42;;;;;;;27.67;15.07;;;6.50;96.10;;;6.94;66.20;98916.13;4901185;28;114997;-76
2022/12/02 06:35:30;;;;;;;22.00;11.53;;;6.50;96.10;;;6.95;66.10;98917.75;4896703;28;113693;-75
2022/12/02 06:38:02;;;;;;;24.80;13.57;;;6.50;96.20;;;6.94;66.07;98914.19;4855686;28;123713;-75
2022/12/02 06:40:35;;;;;;;20.33;10.90;;;6.80;96.40;;;6.94;66.52;98911.44;4872181;28;123851;-73
2022/12/02 06:43:19;;;;;;;22.77;12.90;;;6.70;96.30;;;6.95;65.89;98910.31;4861937;28;115474;-73
2022/12/02 06:45:45;;;;;;;27.03;14.20;;;6.50;96.20;;;6.93;66.38;98917.19;4870570;28;114937;-74
2022/12/02 06:48:32;;;;;;;27.10;12.87;;;6.50;96.30;;;6.96;66.63;98913.88;4855091;28;124698;-74
2022/12/02 06:51:20;;;;;;;25.30;13.17;;;6.50;96.30;;;6.95;66.38;98913.06;4885311;28;124159;-74
2022/12/02 06:53:47;;;;;;;26.67;13.13;;;6.50;96.30;;;6.92;66.67;98913.63;4938948;28;113870;-74
2022/12/02 06:56:30;;;;;;;29.57;14.83;;;6.50;96.30;;;6.95;66.10;98918.56;4948526;28;112603;-74
2022/12/02 06:58:58;;;;;;;22.20;12.37;;;6.50;96.30;;;6.92;66.55;98916.38;4937167;28;124054;-75
2022/12/02 07:01:32;;;;;;;23.20;11.73;;;6.50;96.30;;;6.94;66.31;98919.69;4940950;28;123896;-74
2022/12/02 07:04:07;;;;;;;27.87;13.83;;;6.50;96.30;;;6.93;66.54;98915.28;4952143;28;114308;-74
2022/12/02 07:06:45;;;;;;;23.57;12.47;;;6.50;96.40;;;6.92;66.29;98919.13;4937749;28;112986;-74
2022/12/02 07:09:18;;;;;;;25.07;12.80;;;6.50;96.40;;;6.93;66.74;98925.44;4945721;28;123863;-75
2022/12/02 07:11:53;;;;;;;29.47;14.10;;;6.50;96.40;;;6.94;66.23;98927.91;4973839;28;123780;-74
2022/12/02 07:14:51;;;;;;;22.63;11.87;;;6.60;96.40;;;6.95;66.54;98917.75;4956362;28;115066;-74
2022/12/02 07:17:32;;;;;;;30.73;14.80;;;6.50;96.40;;;6.96;66.34;98914.72;4971557;28;114026;-74
2022/12/02 07:20:04;;;;;;;26.87;14.70;;;6.50;96.40;;;6.96;66.22;98925.72;4959918;28;123534;-73
2022/12/02 07:22:36;;;;;;;31.57;14.83;;;6.50;96.40;;;6.95;66.52;98924.06;4973672;28;125133;-74
2022/12/02 07:25:09;;;;;;;30.97;15.27;;;6.50;96.40;;;6.94;66.59;98927.91;4953624;28;114251;-74
2022/12/02 07:27:39;;;;;;;30.43;14.97;;;6.50;96.40;;;6.92;66.15;98930.13;4970160;28;114464;-74
2022/12/02 07:30:20;;;;;;;29.90;14.93;;;6.50;96.40;;;6.93;66.61;98926.28;4939490;28;123968;-76
2022/12/02 07:32:46;;;;;;;30.37;13.30;;;6.50;96.40;;;6.93;66.39;98926.28;4940387;28;123270;-75
2022/12/02 07:35:13;;;;;;;33.03;15.90;;;6.50;96.40;;;6.96;66.20;98925.72;4933311;28;114897;-75
2022/12/02 07:37:39;;;;;;;27.63;13.30;;;6.50;96.40;;;6.98;66.47;98928.16;4965012;28;114938;-76
2022/12/02 07:40:06;;;;;;;28.50;14.93;;;6.50;96.40;;;6.94;66.55;98927.91;4933297;28;125226;-76
2022/12/02 07:42:33;;;;;;;26.97;13.30;;;6.40;96.40;;;6.93;66.53;98920.78;4953888;28;122940;-82
2022/12/02 07:44:59;;;;;;;28.87;15.07;;;6.60;96.50;;;6.98;66.54;98923.47;4934432;28;113637;-75
2022/12/02 07:47:26;;;;;;;26.63;14.20;;;6.50;96.50;;;6.98;66.32;98920.72;4951778;28;113751;-74
2022/12/02 07:49:56;;;;;;;30.67;14.27;;;6.80;96.60;;;6.99;66.64;98925.13;4950559;28;124124;-74
2022/12/02 07:52:23;;;;;;;31.80;16.33;;;6.50;96.40;;;6.98;66.29;98922.66;4955996;28;123900;-74
2022/12/02 07:54:53;;;;;;;34.43;16.77;;;6.50;96.40;;;6.98;66.24;98925.41;4942726;28;113421;-74
2022/12/02 07:57:21;;;;;;;35.87;16.90;;;6.50;96.40;;;6.95;66.34;98924.06;4950568;28;114237;-74
2022/12/02 07:59:47;;;;;;;30.67;16.43;;;7.00;96.60;;;6.93;66.52;98926.28;4958255;28;124493;-74
2022/12/02 08:02:17;;;;;;;42.70;17.00;;;6.50;96.40;;;6.91;66.18;98922.19;4940418;28;123760;-74
2022/12/02 08:04:43;;;;;;;38.70;17.80;;;6.50;96.40;;;6.88;66.38;98918.06;4955576;28;114177;-74
2022/12/02 08:07:10;;;;;;;39.13;18.13;;;6.40;96.40;;;6.85;66.73;98919.47;4941494;28;113933;-74
2022/12/02 08:09:36;;;;;;;27.27;14.53;;;6.40;96.30;;;6.80;66.47;98922.25;4953721;28;124116;-74
2022/12/02 08:12:04;;;;;;;41.50;17.03;;;6.50;96.40;;;6.80;66.80;98921.44;4933100;28;123784;-75
2022/12/02 08:14:30;;;;;;;39.50;16.87;;;6.40;96.40;;;6.80;66.94;98922.25;4928564;28;114106;-74
2022/12/02 08:16:57;;;;;;;37.17;16.87;;;6.70;96.60;;;6.78;67.13;98913.47;4950336;28;113656;-75
2022/12/02 08:19:23;;;;;;;36.03;17.70;;;6.80;96.60;;;6.81;66.95;98923.06;4957417;28;123930;-74
2022/12/02 08:21:51;;;;;;;33.90;17.00;;;6.40;96.50;;;6.79;66.66;98919.78;4970166;28;123865;-75
2022/12/02 08:24:18;;;;;;;39.17;18.50;;;6.30;96.50;;;6.76;66.73;98923.09;4952506;28;115196;-75
2022/12/02 08:26:46;;;;;;;34.03;18.17;;;6.30;96.50;;;6.72;66.65;98922.84;4955775;28;114553;-74
2022/12/02 08:29:12;;;;;;;39.17;18.30;;;6.30;96.50;;;6.71;67.31;98928.59;4947671;28;123845;-74
2022/12/02 08:31:39;;;;;;;35.67;17.23;;;6.30;96.50;;;6.70;66.98;98921.50;4930412;28;125064;-75
2022/12/02 08:34:05;;;;;;;35.20;16.70;;;6.30;96.50;;;6.68;67.16;98918.19;4951628;28;113960;-74
2022/12/02 08:36:33;;;;;;;32.43;15.60;;;6.40;96.60;;;6.67;66.94;98911.06;4932953;28;113915;-75
2022/12/02 08:39:04;;;;;;;40.73;18.40;;;6.30;96.60;;;6.67;67.01;98914.63;4955849;28;124562;-74
2022/12/02 08:41:40;;;;;;;33.77;16.67;;;6.20;96.60;;;6.68;67.17;98913.53;4934127;28;123801;-74
2022/12/02 08:44:06;;;;;;;29.13;14.67;;;6.40;96.70;;;6.67;66.86;98911.88;4932136;28;114327;-77
2022/12/02 08:46:33;;;;;;;40.77;19.10;;;6.30;96.70;;;6.68;66.84;98901.72;4927519;28;113249;-75
2022/12/02 08:49:00;;;;;;;30.17;15.47;;;6.20;96.70;;;6.68;66.99;98907.22;4936857;28;124125;-74
2022/12/02 08:51:27;;;;;;;28.67;14.90;;;6.20;96.70;;;6.67;66.98;98906.41;4957381;28;124038;-74
2022/12/02 08:53:53;;;;;;;31.80;15.20;;;6.20;96.70;;;6.67;67.37;98905.59;4945683;28;114271;-75
2022/12/02 08:56:20;;;;;;;30.80;14.53;;;6.70;96.90;;;6.66;67.57;98910.22;4929367;28;112881;-74
2022/12/02 08:58:47;;;;;;;26.90;13.33;;;6.20;96.70;;;6.65;67.31;98897.63;4930825;28;124508;-75
2022/12/02 09:01:13;;;;;;;33.90;17.33;;;6.20;96.70;;;6.66;67.51;98912.16;4931503;28;123214;-75
2022/12/02 09:03:40;;;;;;;26.37;14.43;;;6.20;96.70;;;6.65;67.05;98903.13;4931924;28;114101;-74
2022/12/02 09:06:06;;;;;;;28.03;15.40;;;6.80;96.90;;;6.65;67.62;98900.38;4954139;28;113969;-75
2022/12/02 09:08:33;;;;;;;25.87;13.23;;;6.20;96.70;;;6.68;67.19;98904.47;4956609;28;124055;-76
2022/12/02 09:10:59;;;;;;;28.37;15.03;;;6.20;96.80;;;6.70;67.46;98899.53;4953709;28;124080;-75
2022/12/02 09:13:26;;;;;;;26.40;13.10;;;6.20;96.70;;;6.71;67.24;98904.72;4956061;28;115151;-76
2022/12/02 09:15:52;;;;;;;25.17;12.67;;;6.30;96.80;;;6.74;66.75;98901.38;4929372;28;115015;-76
2022/12/02 09:18:19;;;;;;;27.37;13.90;;;6.30;96.80;;;6.75;67.22;98902.25;4933541;28;124005;-75
2022/12/02 09:20:47;;;;;;;25.27;11.97;;;6.30;96.80;;;6.74;67.47;98900.56;4924908;28;124206;-76
2022/12/02 09:23:14;;;;;;;26.83;13.10;;;6.30;96.80;;;6.75;67.11;98896.75;4957694;28;114434;-74
2022/12/02 09:25:41;;;;;;;24.13;12.40;;;6.30;96.80;;;6.75;66.92;98900.31;4948278;28;113547;-75
2022/12/02 09:28:08;;;;;;;25.23;12.70;;;6.30;96.80;;;6.75;66.89;98902.25;4955342;28;124067;-74
2022/12/02 09:30:35;;;;;;;21.37;12.23;;;6.30;97.10;;;6.74;66.92;98901.38;4947841;28;123693;-75
2022/12/02 09:33:01;;;;;;;25.23;11.50;;;6.30;96.80;;;6.74;67.51;98901.38;4936820;28;114252;-74
2022/12/02 09:35:28;;;;;;;18.40;10.73;;;6.50;96.80;;;6.79;66.89;98906.03;4938774;28;113134;-76
2022/12/02 09:37:54;;;;;;;16.70;9.37;;;6.80;97.00;;;6.81;66.83;98901.09;4964144;28;123801;-75
2022/12/02 09:40:22;;;;;;;20.80;11.60;;;6.30;96.80;;;6.83;66.62;98902.44;4956277;28;123636;-75
2022/12/02 09:42:51;;;;;;;23.00;11.23;;;6.40;96.80;;;6.84;66.75;98900.50;4980011;28;115730;-74
2022/12/02 09:45:17;;;;;;;15.87;10.53;;;6.40;96.80;;;6.84;66.56;98904.06;4975433;28;114383;-75
2022/12/02 09:47:47;;;;;;;16.07;10.10;;;6.40;96.70;;;6.84;66.36;98895.03;4967874;28;123765;-76
2022/12/02 09:50:18;;;;;;;18.93;10.40;;;6.40;96.70;;;6.84;66.58;98903.25;4962022;28;97121;-74
2022/12/02 09:52:45;;;;;;;21.57;11.27;;;6.40;96.70;;;6.85;66.83;98891.16;4981097;28;114179;-76
2022/12/02 09:55:15;;;;;;;19.70;11.53;;;6.40;96.70;;;6.84;66.87;98889.53;4958625;28;113767;-75
2022/12/02 09:57:42;;;;;;;17.47;9.33;;;6.40;96.60;;;6.80;67.09;98893.97;4954622;28;124542;-74
2022/12/02 10:00:17;;;;;;;19.60;11.03;;;6.50;96.70;;;6.80;66.92;98891.22;4961000;28;123773;-76
2022/12/02 10:02:52;;;;;;;17.70;9.70;;;6.40;96.60;;;6.78;67.02;98885.19;4982340;28;115254;-75
2022/12/02 10:05:24;;;;;;;14.73;8.73;;;6.40;96.60;;;6.77;67.10;98894.50;4983172;28;114883;-74
2022/12/02 10:07:53;;;;;;;17.10;9.40;;;6.40;96.60;;;6.75;67.08;98885.75;4961937;28;123954;-75
2022/12/02 10:10:24;;;;;;;14.97;8.17;;;6.40;96.60;;;6.76;66.76;98882.72;4967575;28;123487;-74
2022/12/02 10:12:51;;;;;;;16.40;9.33;;;6.40;96.70;;;6.78;67.46;98887.94;4946465;28;114032;-74
2022/12/02 10:15:25;;;;;;;13.10;8.10;;;6.40;96.70;;;6.81;67.27;98884.63;4963973;28;114222;-75
2022/12/02 10:17:55;;;;;;;19.47;9.50;;;6.40;96.70;;;6.79;67.11;98878.56;4952938;28;123773;-77
2022/12/02 10:20:25;;;;;;;18.93;9.37;;;6.40;96.70;;;6.80;67.18;98872.00;4953441;28;123629;-78
2022/12/02 10:23:22;;;;;;;13.80;8.00;;;6.40;96.70;;;6.78;66.74;98869.53;4952572;28;115627;-75
2022/12/02 10:26:07;;;;;;;22.10;10.30;;;6.40;96.60;;;6.77;67.14;98872.53;4980954;28;114142;-74